Huizhou, China
Current Conditions -  °F | °C
As of 11:00 PM on Thursday 23 Oct 2014 (Local Time) from ZGSZ Reporting Station
Few Clouds Few Clouds  
Wind Chill: 75°   Ceiling: Unl
Heat Index: 75°   Visibility: 4mi
Dew Point: 68°   Wind: 4mph
Humidity: 78%   Direction: 100°E
Pressure: 30"   Gusts: NA
Location:  23.08°N, 114.4°E
Report Text: ZGSZ 231500Z 10002MPS 6000 FEW036 24/20 Q1016 NOSIG
Loading
Personal Weather Stations






























Interactive Weather Map
Tropical Storm Tracking
New forecast layout! Learn more

10-Day Weather Forecast

Advertisements
Track Severe Weather on mobile